createdAt,value
2022-10-09T00:00:22.729Z,8.96
2022-10-09T00:02:50.795Z,8.96
2022-10-09T00:05:18.514Z,8.87
2022-10-09T00:07:45.989Z,8.94
2022-10-09T00:10:13.428Z,8.95
2022-10-09T00:12:43.473Z,8.94
2022-10-09T00:15:11.710Z,8.92
2022-10-09T00:17:39.643Z,8.89
2022-10-09T00:20:07.835Z,8.85
2022-10-09T00:22:35.705Z,8.89
2022-10-09T00:25:03.316Z,8.92
2022-10-09T00:27:30.758Z,8.93
2022-10-09T00:29:59.544Z,8.96
2022-10-09T00:32:26.946Z,8.89
2022-10-09T00:34:54.414Z,8.88
2022-10-09T00:37:21.857Z,8.88
2022-10-09T00:39:49.300Z,8.89
2022-10-09T00:42:16.766Z,8.86
2022-10-09T00:44:48.082Z,8.85
2022-10-09T00:47:19.580Z,8.84
2022-10-09T00:49:48.215Z,8.72
2022-10-09T00:52:15.996Z,8.86
2022-10-09T00:54:44.106Z,8.84
2022-10-09T00:57:12.753Z,8.78
2022-10-09T00:59:40.853Z,8.75
2022-10-09T01:02:08.503Z,8.71
2022-10-09T01:04:37.447Z,8.68
2022-10-09T01:07:11.416Z,8.63
2022-10-09T01:09:41.709Z,8.56
2022-10-09T01:12:14.549Z,8.52
2022-10-09T01:14:48.129Z,8.51
2022-10-09T01:17:19.366Z,8.48
2022-10-09T01:19:56.791Z,8.41
2022-10-09T01:22:32.414Z,8.35
2022-10-09T01:25:02.916Z,8.15
2022-10-09T01:27:33.172Z,8.06
2022-10-09T01:30:01.656Z,8.11
2022-10-09T01:32:31.865Z,8.15
2022-10-09T01:34:59.554Z,7.98
2022-10-09T01:37:28.553Z,8.00
2022-10-09T01:39:56.119Z,8.08
2022-10-09T01:42:24.964Z,8.06
2022-10-09T01:44:53.794Z,7.87
2022-10-09T01:47:22.556Z,7.89
2022-10-09T01:49:54.545Z,7.96
2022-10-09T01:52:26.591Z,8.01
2022-10-09T01:55:02.718Z,8.00
2022-10-09T01:57:33.609Z,7.95
2022-10-09T02:00:04.987Z,7.93
2022-10-09T02:02:32.683Z,7.90
2022-10-09T02:05:00.814Z,7.82
2022-10-09T02:07:29.462Z,7.54
2022-10-09T02:09:57.172Z,7.60
2022-10-09T02:12:25.737Z,7.67
2022-10-09T02:14:53.202Z,7.71
2022-10-09T02:17:27.358Z,7.68
2022-10-09T02:19:56.574Z,7.69
2022-10-09T02:22:26.526Z,7.63
2022-10-09T02:24:54.576Z,7.64
2022-10-09T02:27:22.602Z,7.68
2022-10-09T02:29:50.687Z,7.65
2022-10-09T02:32:18.475Z,7.66
2022-10-09T02:34:47.358Z,7.62
2022-10-09T02:37:15.215Z,7.60
2022-10-09T02:39:43.700Z,7.48
2022-10-09T02:42:11.194Z,7.38
2022-10-09T02:44:40.646Z,7.32
2022-10-09T02:47:08.413Z,7.39
2022-10-09T02:49:36.508Z,7.42
2022-10-09T02:52:05.407Z,7.27
2022-10-09T02:54:32.837Z,7.31
2022-10-09T02:57:00.291Z,7.38
2022-10-09T02:59:27.745Z,7.40
2022-10-09T03:01:55.814Z,7.35
2022-10-09T03:04:23.361Z,7.31
2022-10-09T03:06:50.816Z,7.31
2022-10-09T03:09:19.622Z,7.22
2022-10-09T03:11:47.136Z,7.12
2022-10-09T03:14:14.591Z,7.23
2022-10-09T03:16:42.124Z,7.26
2022-10-09T03:19:09.583Z,7.13
2022-10-09T03:21:37.041Z,6.64
2022-10-09T03:24:04.584Z,7.22
2022-10-09T03:26:33.364Z,7.21
2022-10-09T03:29:00.823Z,7.20
2022-10-09T03:34:15.981Z,7.19
2022-10-09T03:36:43.505Z,7.18
2022-10-09T03:39:11.230Z,7.14
2022-10-09T03:41:40.270Z,7.11
2022-10-09T03:44:07.835Z,6.97
2022-10-09T03:46:35.500Z,6.90
2022-10-09T03:49:02.997Z,6.93
2022-10-09T03:51:30.650Z,6.97
2022-10-09T03:53:58.347Z,6.88
2022-10-09T03:56:25.803Z,6.92
2022-10-09T03:58:54.601Z,6.87
2022-10-09T04:01:22.069Z,6.78
2022-10-09T04:03:49.984Z,6.73
2022-10-09T04:06:17.457Z,6.87
2022-10-09T04:08:44.894Z,6.81
2022-10-09T04:11:12.353Z,6.60
2022-10-09T04:13:41.986Z,6.66
2022-10-09T04:16:12.680Z,6.74
2022-10-09T04:18:40.775Z,6.67
2022-10-09T04:21:08.656Z,6.64
2022-10-09T04:23:36.149Z,6.76
2022-10-09T04:26:03.654Z,6.78
2022-10-09T04:28:31.661Z,6.68
2022-10-09T04:30:59.504Z,6.67
2022-10-09T04:33:28.270Z,6.68
2022-10-09T04:35:56.210Z,6.61
2022-10-09T04:38:24.380Z,6.60
2022-10-09T04:40:58.486Z,6.63
2022-10-09T04:43:26.096Z,6.60
2022-10-09T04:45:53.572Z,6.64
2022-10-09T04:48:21.151Z,6.55
2022-10-09T04:50:50.028Z,6.57
2022-10-09T04:53:17.501Z,6.59
2022-10-09T04:55:45.546Z,6.62
2022-10-09T04:58:13.567Z,6.65
2022-10-09T05:00:42.004Z,6.63
2022-10-09T05:03:09.841Z,6.62
2022-10-09T05:05:37.491Z,6.52
2022-10-09T05:08:06.367Z,6.53
2022-10-09T05:10:34.063Z,6.57
2022-10-09T05:13:02.065Z,6.56
2022-10-09T05:15:29.631Z,6.47
2022-10-09T05:17:57.118Z,6.47
2022-10-09T05:20:24.623Z,6.51
2022-10-09T05:22:52.637Z,6.53
2022-10-09T05:25:21.906Z,6.52
2022-10-09T05:27:49.555Z,6.47
2022-10-09T05:30:16.960Z,6.48
2022-10-09T05:32:44.411Z,6.49
2022-10-09T05:35:11.834Z,6.46
2022-10-09T05:37:39.700Z,6.47
2022-10-09T05:40:07.767Z,6.44
2022-10-09T05:42:36.588Z,6.40
2022-10-09T05:45:04.183Z,6.42
2022-10-09T05:47:32.046Z,6.45
2022-10-09T05:49:59.539Z,6.41
2022-10-09T05:52:27.090Z,6.41
2022-10-09T05:54:56.792Z,6.40
2022-10-09T05:57:24.261Z,6.35
2022-10-09T05:59:53.223Z,6.36
2022-10-09T06:02:20.807Z,6.37
2022-10-09T06:04:48.268Z,6.34
2022-10-09T06:07:15.722Z,6.36
2022-10-09T06:09:43.232Z,6.35
2022-10-09T06:12:10.631Z,6.37
2022-10-09T06:14:38.287Z,6.39
2022-10-09T06:17:07.256Z,6.38
2022-10-09T06:19:34.681Z,6.41
2022-10-09T06:22:02.171Z,6.40
2022-10-09T06:24:29.746Z,6.43
2022-10-09T06:26:57.618Z,6.46
2022-10-09T06:29:25.662Z,6.48
2022-10-09T06:31:53.129Z,6.48
2022-10-09T06:34:22.319Z,6.51
2022-10-09T06:36:51.579Z,6.57
2022-10-09T06:39:19.313Z,6.51
2022-10-09T06:41:46.758Z,6.58
2022-10-09T06:44:17.170Z,6.65
2022-10-09T06:46:45.920Z,6.71
2022-10-09T06:49:13.459Z,6.76
2022-10-09T06:51:42.413Z,6.86
2022-10-09T06:54:11.986Z,6.89
2022-10-09T06:56:40.112Z,6.91
2022-10-09T06:59:08.611Z,6.90
2022-10-09T07:01:36.988Z,6.92
2022-10-09T07:04:06.948Z,6.96
2022-10-09T07:06:35.579Z,7.02
2022-10-09T07:09:06.774Z,7.01
2022-10-09T07:11:35.305Z,7.14
2022-10-09T07:14:03.879Z,7.17
2022-10-09T07:16:32.281Z,7.24
2022-10-09T07:19:01.229Z,7.21
2022-10-09T07:21:28.695Z,7.34
2022-10-09T07:23:56.302Z,7.38
2022-10-09T07:26:26.600Z,7.44
2022-10-09T07:28:54.124Z,7.49
2022-10-09T07:31:22.905Z,7.54
2022-10-09T07:33:50.720Z,7.55
2022-10-09T07:36:18.612Z,7.60
2022-10-09T07:38:50.158Z,7.62
2022-10-09T07:41:18.775Z,7.78
2022-10-09T07:43:48.298Z,7.81
2022-10-09T07:46:16.876Z,7.81
2022-10-09T07:48:47.111Z,7.93
2022-10-09T07:51:16.330Z,8.05
2022-10-09T07:53:43.814Z,8.13
2022-10-09T07:56:14.934Z,8.19
2022-10-09T07:58:42.365Z,8.33
2022-10-09T08:01:13.997Z,8.46
2022-10-09T08:03:43.762Z,8.51
2022-10-09T08:06:11.295Z,8.59
2022-10-09T08:08:39.066Z,8.68
2022-10-09T08:11:09.787Z,8.74
2022-10-09T08:13:37.276Z,8.84
2022-10-09T08:16:05.196Z,8.94
2022-10-09T08:18:34.823Z,9.02
2022-10-09T08:21:03.221Z,9.11
2022-10-09T08:23:30.710Z,9.26
2022-10-09T08:25:58.136Z,9.42
2022-10-09T08:28:25.707Z,9.51
2022-10-09T08:30:53.287Z,9.55
2022-10-09T08:33:22.382Z,9.68
2022-10-09T08:35:51.877Z,9.79
2022-10-09T08:38:45.081Z,9.83
2022-10-09T08:41:09.401Z,10.02
2022-10-09T08:43:39.819Z,10.06
2022-10-09T08:46:11.773Z,10.15
2022-10-09T08:48:42.191Z,10.17
2022-10-09T08:51:15.657Z,10.24
2022-10-09T08:53:46.134Z,10.32
2022-10-09T08:56:15.416Z,10.45
2022-10-09T08:58:43.921Z,10.53
2022-10-09T09:01:16.639Z,10.66
2022-10-09T09:03:51.450Z,10.74
2022-10-09T09:06:23.524Z,10.77
2022-10-09T09:08:54.630Z,10.77
2022-10-09T09:11:29.157Z,10.87
2022-10-09T09:14:02.576Z,11.01
2022-10-09T09:16:37.767Z,11.13
2022-10-09T09:19:10.891Z,11.20
2022-10-09T09:21:45.908Z,11.40
2022-10-09T09:24:15.284Z,11.54
2022-10-09T09:26:44.400Z,11.59
2022-10-09T09:29:14.947Z,11.69
2022-10-09T09:31:44.039Z,11.77
2022-10-09T09:34:14.075Z,11.87
2022-10-09T09:36:45.711Z,11.83
2022-10-09T09:42:02.971Z,12.14
2022-10-09T09:44:31.853Z,12.29
2022-10-09T09:46:59.546Z,12.24
2022-10-09T09:49:29.282Z,12.32
2022-10-09T09:51:59.337Z,12.35
2022-10-09T09:54:27.769Z,12.50
2022-10-09T09:57:18.209Z,12.65
2022-10-09T09:59:45.735Z,12.85
2022-10-09T10:02:15.630Z,12.83
2022-10-09T10:04:53.268Z,12.99
2022-10-09T10:07:34.952Z,12.98
2022-10-09T10:10:03.188Z,13.05
2022-10-09T10:12:30.819Z,13.19
2022-10-09T10:14:58.391Z,13.33
2022-10-09T10:17:28.155Z,13.34
2022-10-09T10:19:55.757Z,13.41
2022-10-09T10:22:24.514Z,13.51
2022-10-09T10:24:54.469Z,13.62
2022-10-09T10:27:24.972Z,13.66
2022-10-09T10:29:56.150Z,13.71
2022-10-09T10:32:27.003Z,13.89
2022-10-09T10:34:56.487Z,14.01
2022-10-09T10:37:33.156Z,14.21
2022-10-09T10:40:04.003Z,14.31
2022-10-09T10:42:37.075Z,14.35
2022-10-09T10:45:10.000Z,14.43
2022-10-09T10:47:40.987Z,14.61
2022-10-09T10:50:13.460Z,14.74
2022-10-09T10:52:44.944Z,14.80
2022-10-09T10:55:22.782Z,14.82
2022-10-09T10:57:55.653Z,14.78
2022-10-09T11:00:23.087Z,14.49
2022-10-09T11:03:03.250Z,14.78
2022-10-09T11:05:37.156Z,14.85
2022-10-09T11:08:20.920Z,15.04
2022-10-09T11:11:00.663Z,15.05
2022-10-09T11:13:32.217Z,14.99
2022-10-09T11:16:04.798Z,14.94
2022-10-09T11:18:41.429Z,14.93
2022-10-09T11:21:17.120Z,15.14
2022-10-09T11:23:51.055Z,15.28
2022-10-09T11:26:23.381Z,15.34
2022-10-09T11:28:53.431Z,15.23
2022-10-09T11:31:22.667Z,15.35
2022-10-09T11:33:52.005Z,15.56
2022-10-09T11:36:20.763Z,15.72
2022-10-09T11:38:52.871Z,15.62
2022-10-09T11:41:21.895Z,15.48
2022-10-09T11:43:54.457Z,15.56
2022-10-09T11:46:26.460Z,15.64
2022-10-09T11:48:57.083Z,15.71
2022-10-09T11:51:30.366Z,15.56
2022-10-09T11:53:58.526Z,15.71
2022-10-09T11:56:32.000Z,16.03
2022-10-09T11:59:00.427Z,16.07
2022-10-09T12:01:30.521Z,16.42
2022-10-09T12:04:03.133Z,16.19
2022-10-09T12:06:31.323Z,16.29
2022-10-09T12:08:59.951Z,15.92
2022-10-09T12:11:29.449Z,16.19
2022-10-09T12:13:58.311Z,16.74
2022-10-09T12:16:30.891Z,16.78
2022-10-09T12:19:00.079Z,16.86
2022-10-09T12:21:30.041Z,16.94
2022-10-09T12:23:57.968Z,17.08
2022-10-09T12:26:25.961Z,17.36
2022-10-09T12:28:56.116Z,17.35
2022-10-09T12:31:25.627Z,17.75
2022-10-09T12:33:55.725Z,17.47
2022-10-09T12:36:24.700Z,18.71
2022-10-09T12:38:52.556Z,18.38
2022-10-09T12:41:22.311Z,17.68
2022-10-09T12:43:50.724Z,19.00
2022-10-09T12:46:28.086Z,19.77
2022-10-09T12:48:55.627Z,19.59
2022-10-09T12:51:25.681Z,18.93
2022-10-09T12:53:54.012Z,19.45
2022-10-09T12:56:23.810Z,19.85
2022-10-09T12:58:52.088Z,20.29
2022-10-09T13:01:20.237Z,18.43
2022-10-09T13:03:55.884Z,19.84
2022-10-09T13:06:24.483Z,18.72
2022-10-09T13:08:56.234Z,18.89
2022-10-09T13:11:26.068Z,18.69
2022-10-09T13:13:54.611Z,17.79
2022-10-09T13:16:22.551Z,17.61
2022-10-09T13:18:57.935Z,16.92
2022-10-09T13:21:29.106Z,16.90
2022-10-09T13:24:07.492Z,16.56
2022-10-09T13:26:34.922Z,16.90
2022-10-09T13:29:03.679Z,16.15
2022-10-09T13:31:32.761Z,16.28
2022-10-09T13:34:01.808Z,16.48
2022-10-09T13:36:29.276Z,16.61
2022-10-09T13:38:57.940Z,16.41
2022-10-09T13:41:25.944Z,16.53
2022-10-09T13:43:54.279Z,16.42
2022-10-09T13:46:21.953Z,16.41
2022-10-09T13:48:49.620Z,16.56
2022-10-09T13:51:18.427Z,16.21
2022-10-09T13:53:45.872Z,16.09
2022-10-09T13:56:13.506Z,16.13
2022-10-09T13:58:40.930Z,16.17
2022-10-09T14:01:08.889Z,16.24
2022-10-09T14:03:36.432Z,16.19
2022-10-09T14:06:04.569Z,16.48
2022-10-09T14:08:33.395Z,16.42
2022-10-09T14:11:01.551Z,16.33
2022-10-09T14:13:29.768Z,16.03
2022-10-09T14:15:57.197Z,16.31
2022-10-09T14:18:24.732Z,16.41
2022-10-09T14:20:52.364Z,16.06
2022-10-09T14:23:19.773Z,16.10
2022-10-09T14:25:48.594Z,16.36
2022-10-09T14:28:16.205Z,16.21
2022-10-09T14:30:43.970Z,16.17
2022-10-09T14:33:12.528Z,16.18
2022-10-09T14:35:40.450Z,16.15
2022-10-09T14:38:07.866Z,16.31
2022-10-09T14:40:37.720Z,16.35
2022-10-09T14:43:06.519Z,16.36
2022-10-09T14:45:34.156Z,16.03
2022-10-09T14:48:01.627Z,16.26
2022-10-09T14:50:29.162Z,16.18
2022-10-09T14:52:56.678Z,16.14
2022-10-09T14:55:24.952Z,16.08
2022-10-09T14:57:52.367Z,16.07
2022-10-09T15:00:21.248Z,16.16
2022-10-09T15:02:48.653Z,16.12
2022-10-09T15:05:16.154Z,15.86
2022-10-09T15:07:43.614Z,15.94
2022-10-09T15:10:12.212Z,15.73
2022-10-09T15:12:40.467Z,15.77
2022-10-09T15:15:08.396Z,15.65
2022-10-09T15:17:37.248Z,15.83
2022-10-09T15:20:04.881Z,15.81
2022-10-09T15:22:32.353Z,15.95
2022-10-09T15:24:59.822Z,15.77
2022-10-09T15:27:27.279Z,15.71
2022-10-09T15:29:54.776Z,15.74
2022-10-09T15:32:22.216Z,15.75
2022-10-09T15:34:51.190Z,15.64
2022-10-09T15:37:18.610Z,15.53
2022-10-09T15:39:46.109Z,15.57
2022-10-09T15:42:13.553Z,15.43
2022-10-09T15:44:42.270Z,15.43
2022-10-09T15:47:09.711Z,15.45
2022-10-09T15:49:37.153Z,15.46
2022-10-09T15:52:05.970Z,15.28
2022-10-09T15:54:33.406Z,15.22
2022-10-09T15:57:00.840Z,15.24
2022-10-09T15:59:30.091Z,15.07
2022-10-09T16:01:57.569Z,15.11
2022-10-09T16:04:25.029Z,15.01
2022-10-09T16:06:52.460Z,14.86
2022-10-09T16:09:21.671Z,14.97
2022-10-09T16:11:49.420Z,14.89
2022-10-09T16:14:16.853Z,14.96
2022-10-09T16:16:44.675Z,14.80
2022-10-09T16:19:12.167Z,14.99
2022-10-09T16:21:40.127Z,14.77
2022-10-09T16:24:07.553Z,14.73
2022-10-09T16:26:36.422Z,14.77
2022-10-09T16:29:04.036Z,14.68
2022-10-09T16:31:34.757Z,14.64
2022-10-09T16:34:02.328Z,14.58
2022-10-09T16:36:30.022Z,14.59
2022-10-09T16:38:58.361Z,14.59
2022-10-09T16:41:26.197Z,14.44
2022-10-09T16:43:56.304Z,14.41
2022-10-09T16:46:24.698Z,14.38
2022-10-09T16:48:52.649Z,14.29
2022-10-09T16:51:21.581Z,14.06
2022-10-09T16:53:50.217Z,14.07
2022-10-09T16:56:19.865Z,13.91
2022-10-09T16:58:47.728Z,13.92
2022-10-09T17:01:19.231Z,13.91
2022-10-09T17:03:46.935Z,13.82
2022-10-09T17:06:16.126Z,13.76
2022-10-09T17:08:44.027Z,13.72
2022-10-09T17:11:13.043Z,13.66
2022-10-09T17:13:41.750Z,13.59
2022-10-09T17:16:14.426Z,13.46
2022-10-09T17:18:46.244Z,13.18
2022-10-09T17:21:14.768Z,13.37
2022-10-09T17:23:42.536Z,13.30
2022-10-09T17:26:14.061Z,13.31
2022-10-09T17:28:42.431Z,13.18
2022-10-09T17:31:11.252Z,13.08
2022-10-09T17:33:42.729Z,13.02
2022-10-09T17:36:12.235Z,12.98
2022-10-09T17:38:41.909Z,12.98
2022-10-09T17:41:10.607Z,12.91
2022-10-09T17:43:40.465Z,12.82
2022-10-09T17:46:08.433Z,12.72
2022-10-09T17:48:36.148Z,12.65
2022-10-09T17:51:04.616Z,12.61
2022-10-09T17:53:33.437Z,12.53
2022-10-09T17:56:04.068Z,12.06
2022-10-09T17:58:31.635Z,12.41
2022-10-09T18:00:59.182Z,12.37
2022-10-09T18:03:26.690Z,12.30
2022-10-09T18:05:54.151Z,12.25
2022-10-09T18:08:22.296Z,12.21
2022-10-09T18:10:59.122Z,12.11
2022-10-09T18:13:26.555Z,12.07
2022-10-09T18:15:54.104Z,12.02
2022-10-09T18:18:21.644Z,11.94
2022-10-09T18:20:49.321Z,11.90
2022-10-09T18:23:21.802Z,11.82
2022-10-09T18:25:50.060Z,11.74
2022-10-09T18:28:19.555Z,11.65
2022-10-09T18:30:47.115Z,11.56
2022-10-09T18:33:14.551Z,11.48
2022-10-09T18:35:42.075Z,11.42
2022-10-09T18:38:10.563Z,11.35
2022-10-09T18:40:41.885Z,11.29
2022-10-09T18:43:12.798Z,11.23
2022-10-09T18:45:45.325Z,11.18
2022-10-09T18:48:13.089Z,11.12
2022-10-09T18:50:40.880Z,10.57
2022-10-09T18:53:08.872Z,10.99
2022-10-09T18:55:36.431Z,10.93
2022-10-09T18:58:04.223Z,10.88
2022-10-09T19:00:31.773Z,10.86
2022-10-09T19:03:00.571Z,10.80
2022-10-09T19:05:28.018Z,10.77
2022-10-09T19:07:56.129Z,10.20
2022-10-09T19:10:23.591Z,10.68
2022-10-09T19:12:52.441Z,10.64
2022-10-09T19:15:20.045Z,10.61
2022-10-09T19:17:47.608Z,10.57
2022-10-09T19:20:16.565Z,10.53
2022-10-09T19:22:44.045Z,10.49
2022-10-09T19:25:11.899Z,10.45
2022-10-09T19:27:39.686Z,10.41
2022-10-09T19:30:07.711Z,10.38
2022-10-09T19:32:35.420Z,10.33
2022-10-09T19:35:03.579Z,10.28
2022-10-09T19:37:32.422Z,10.22
2022-10-09T19:39:59.850Z,10.19
2022-10-09T19:42:27.351Z,10.17
2022-10-09T19:44:54.753Z,10.13
2022-10-09T19:47:23.830Z,10.09
2022-10-09T19:49:51.346Z,10.07
2022-10-09T19:52:19.932Z,10.03
2022-10-09T19:54:48.767Z,10.01
2022-10-09T19:57:16.208Z,9.97
2022-10-09T19:59:43.703Z,9.95
2022-10-09T20:02:11.796Z,9.92
2022-10-09T20:04:39.652Z,9.89
2022-10-09T20:07:12.372Z,9.86
2022-10-09T20:09:40.727Z,9.85
2022-10-09T20:12:10.405Z,9.81
2022-10-09T20:14:37.890Z,9.71
2022-10-09T20:17:05.354Z,9.70
2022-10-09T20:19:32.981Z,9.70
2022-10-09T20:22:00.478Z,9.74
2022-10-09T20:24:28.099Z,9.71
2022-10-09T20:26:55.556Z,9.72
2022-10-09T20:29:26.847Z,9.74
2022-10-09T20:31:54.684Z,9.75
2022-10-09T20:34:22.659Z,9.69
2022-10-09T20:36:50.257Z,9.71
2022-10-09T20:39:19.477Z,9.70
2022-10-09T20:41:46.950Z,9.65
2022-10-09T20:44:14.779Z,9.62
2022-10-09T20:46:43.600Z,9.59
2022-10-09T20:49:12.299Z,9.55
2022-10-09T20:51:40.656Z,9.51
2022-10-09T20:54:08.641Z,9.49
2022-10-09T20:56:36.630Z,9.54
2022-10-09T20:59:04.526Z,9.51
2022-10-09T21:01:32.101Z,9.51
2022-10-09T21:04:01.230Z,9.47
2022-10-09T21:06:30.046Z,9.45
2022-10-09T21:08:57.778Z,9.29
2022-10-09T21:11:26.022Z,9.16
2022-10-09T21:13:53.820Z,9.24
2022-10-09T21:16:22.492Z,9.20
2022-10-09T21:18:53.584Z,9.19
2022-10-09T21:21:22.402Z,9.15
2022-10-09T21:23:51.406Z,9.09
2022-10-09T21:26:20.437Z,9.15
2022-10-09T21:28:51.700Z,9.12
2022-10-09T21:31:23.340Z,9.17
2022-10-09T21:33:51.117Z,9.17
2022-10-09T21:36:23.656Z,9.14
2022-10-09T21:38:52.523Z,9.12
2022-10-09T21:41:20.042Z,9.13
2022-10-09T21:43:47.540Z,9.16
2022-10-09T21:46:14.974Z,9.13
2022-10-09T21:48:42.459Z,8.59
2022-10-09T21:51:09.918Z,9.11
2022-10-09T21:53:37.495Z,9.12
2022-10-09T21:56:07.179Z,9.13
2022-10-09T21:58:34.745Z,9.13
2022-10-09T22:01:02.580Z,9.09
2022-10-09T22:03:31.083Z,9.12
2022-10-09T22:05:58.570Z,9.13
2022-10-09T22:08:26.535Z,9.18
2022-10-09T22:10:54.013Z,9.18
2022-10-09T22:13:22.881Z,9.17
2022-10-09T22:15:51.452Z,9.26
2022-10-09T22:18:19.205Z,9.24
2022-10-09T22:20:48.933Z,9.27
2022-10-09T22:23:16.672Z,9.28
2022-10-09T22:25:44.116Z,9.30
2022-10-09T22:28:11.620Z,9.25
2022-10-09T22:30:40.780Z,9.33
2022-10-09T22:33:08.344Z,9.29
2022-10-09T22:35:35.756Z,9.30
2022-10-09T22:38:03.501Z,9.25
2022-10-09T22:40:31.002Z,9.21
2022-10-09T22:42:58.439Z,9.23
2022-10-09T22:45:26.060Z,9.20
2022-10-09T22:47:54.862Z,9.20
2022-10-09T22:50:22.752Z,9.21
2022-10-09T22:52:51.180Z,9.20
2022-10-09T22:55:18.934Z,9.17
2022-10-09T22:57:46.620Z,9.12
2022-10-09T23:00:14.812Z,9.10
2022-10-09T23:02:42.246Z,9.12
2022-10-09T23:05:11.313Z,9.08
2022-10-09T23:07:38.933Z,9.02
2022-10-09T23:10:06.698Z,9.01
2022-10-09T23:12:34.327Z,8.99
2022-10-09T23:15:01.875Z,8.93
2022-10-09T23:17:29.285Z,8.92
2022-10-09T23:19:56.702Z,8.91
2022-10-09T23:22:25.568Z,8.90
2022-10-09T23:24:52.970Z,8.91
2022-10-09T23:27:20.446Z,8.90
2022-10-09T23:29:47.976Z,8.85
2022-10-09T23:32:15.583Z,8.91
2022-10-09T23:34:43.321Z,8.89
2022-10-09T23:37:10.788Z,8.86
2022-10-09T23:39:39.878Z,8.88
2022-10-09T23:42:07.310Z,8.86
2022-10-09T23:44:34.746Z,8.81
2022-10-09T23:47:02.216Z,8.84
2022-10-09T23:49:29.641Z,8.86
2022-10-09T23:51:57.120Z,8.85
2022-10-09T23:54:24.557Z,8.86
2022-10-09T23:56:53.379Z,8.89
2022-10-09T23:59:20.841Z,8.83
